Latest Coastal Weather Observations for Wyndham Airport

IDD60701

Issued at 1:21 pm CST Monday 11 December 2017 (issued every 10 minutes, with the page automatically refreshed every 10 minutes)

About coastal observations | Map of coastal stations | Coastal observations for NT | Marine services | Other Formats
Station Details ID: 001006 Name: WYNDHAM AERO Lat: -15.51 Lon: 128.15 Height: 3.8 m
Data from the previous 72 hours. | See also: Recent months at Wyndham Airport
Date/Time
CST
Temp
°C
Wind Pressure Rain since
9am
mm
Weather Cloud Vis
km
Sea
Height
m
Swell
Dir  Spd
kts
Gust
kts
hPa Trend Height
m
Period
s
Dir
11/01:00pm 36.8 WNW 3 6 1008.0 - 0.0 - - - - - - -
11/12:30pm 36.5 W 5 8 1008.5 - 0.0 - - - - - - -
11/12:00pm 36.6 NNW 3 6 1009.2 - 0.0 - - - - - - -
11/11:30am 36.0 NNW 5 8 1009.6 - 0.0 - - - - - - -
11/11:00am 35.5 NW 6 8 1010.2 - 0.0 - - - - - - -
11/10:30am 35.3 WNW 6 9 1010.5 - 5.6 - - - - - - -
11/10:00am 34.4 W 7 10 1010.6 - 5.6 - - - - - - -
11/09:30am 33.4 WSW 5 7 1010.9 - 5.6 - - - - - - -
11/09:00am 32.6 WSW 4 6 1011.0 - 5.6 - - - - - - -
11/08:30am 31.6 WNW 4 5 1011.1 - 5.6 - - - - - - -
11/08:00am 30.9 WNW 1 4 1011.2 - 5.6 - - - - - - -
11/07:30am 29.9 CALM 0 0 1010.9 - 5.6 - - - - - - -
11/07:00am 28.6 CALM 0 1 1010.6 - 5.6 - - - - - - -
11/06:30am 28.1 NNW 3 3 1010.2 - 5.6 - - - - - - -
11/06:00am 27.4 NW 3 4 1009.9 - 5.6 - - - - - - -
11/05:30am 27.5 NW 3 4 1009.4 - 5.6 - - - - - - -
11/05:00am 27.7 NW 3 4 1009.2 - 5.6 - - - - - - -
11/04:30am 28.2 WNW 3 4 1008.9 - 5.6 - - - - - - -
11/04:00am 28.3 SSW 8 9 1008.8 - 5.6 - - - - - - -
11/03:30am 28.2 SSW 4 6 1008.7 - 5.6 - - - - - - -
11/03:00am 27.7 NE 3 4 1008.6 - 5.6 - - - - - - -
11/02:30am 27.8 N 4 6 1008.8 - 5.6 - - - - - - -
11/02:00am 28.0 WNW 5 7 1009.0 - 5.6 - - - - - - -
11/01:30am 28.2 CALM 0 0 1009.0 - 5.6 - - - - - - -
11/01:00am 28.0 CALM 0 0 1008.9 - 5.6 - - - - - - -
11/12:30am 27.8 SE 1 5 1009.0 - 5.6 - - - - - - -
11/12:00am 28.4 SE 2 4 1009.4 - 5.6 - - - - - - -
 
Date/Time
CST
Temp
°C
Wind Pressure Rain since
9am
mm
Weather Cloud Vis
km
Sea
Height
m
Swell
Dir  Spd
kts
Gust
kts
hPa Trend Height
m
Period
s
Dir
10/11:30pm 28.1 SW 6 9 1009.5 - 5.6 - - - - - - -
10/11:00pm 27.4 N 4 8 1009.5 - 5.6 - - - - - - -
10/10:30pm 26.9 NNW 14 21 1009.4 - 5.6 Rain - - - - - -
10/10:11pm 27.3 ESE 31 52 1010.3 - 4.2 - - - - - - -
10/10:02pm 28.9 E 16 48 1009.8 - 0.0 - - - - - - -
10/10:00pm 32.9 ENE 10 28 1009.9 - 0.0 - - - - - - -
10/09:58pm 33.0 NNE 7 26 1009.9 - 0.0 - - - - - - -
10/09:30pm 33.3 NNW 6 9 1008.8 - 0.0 - - - - - - -
10/09:00pm 33.4 NNW 10 13 1008.6 - 0.0 - - - - - - -
10/08:30pm 33.5 N 12 16 1008.1 - 0.0 - - - - - - -
10/08:00pm 33.7 N 13 17 1007.8 - 0.0 - - - - - - -
10/07:30pm 34.0 N 10 13 1007.3 - 0.0 - - - - - - -
10/07:00pm 34.9 N 11 14 1006.9 - 0.0 - - - - - - -
10/06:30pm 35.9 N 10 13 1006.6 - 0.0 - - - - - - -
10/06:00pm 36.1 N 11 16 1006.4 - 0.0 - - - - - - -
10/05:30pm 39.3 ESE 11 15 1006.1 - 0.0 - - - - - - -
10/05:00pm 38.8 E 9 11 1005.9 - 0.0 - - - - - - -
10/04:30pm 38.8 ENE 6 10 1005.8 - 0.0 - - - - - - -
10/04:00pm 38.4 ENE 7 13 1006.2 - 0.0 - - - - - - -
10/03:30pm 38.9 E 9 15 1006.5 - 0.0 - - - - - - -
10/03:00pm 38.3 NE 9 13 1006.9 - 0.0 - - - - - - -
10/02:30pm 38.2 E 9 14 1007.3 - 0.0 - - - - - - -
10/02:00pm 38.6 E 11 18 1007.7 - 0.0 - - - - - - -
10/01:30pm 37.0 NE 7 10 1008.2 - 0.0 - - - - - - -
10/01:00pm 36.4 WNW 5 7 1008.7 - 0.0 - - - - - - -
10/12:30pm 35.7 WSW 4 6 1009.3 - 0.0 - - - - - - -
10/12:00pm 35.6 S 5 7 1009.8 - 0.0 - - - - - - -
10/11:30am 33.7 W 4 5 1010.2 - 0.0 - - - - - - -
10/11:00am 33.0 SW 5 7 1010.5 - 0.0 - - - - - - -
10/10:30am 32.7 WSW 4 5 1010.8 - 0.0 - - - - - - -
10/10:00am 32.4 W 5 8 1010.9 - 0.0 - - - - - - -
10/09:30am 32.1 W 3 5 1011.1 - 0.0 - - - - - - -
10/09:00am 31.6 CALM 0 1 1011.0 - 0.0 - - - - - - -
10/08:30am 30.8 E 4 6 1010.9 - 0.0 - - - - - - -
10/08:00am 30.0 ESE 6 7 1010.6 - 0.0 - - - - - - -
10/07:30am 29.3 ESE 6 7 1010.2 - 0.0 - - - - - - -
10/07:00am 28.9 ESE 6 7 1010.0 - 0.0 - - - - - - -
10/06:30am 28.4 ENE 4 5 1009.7 - 0.0 - - - - - - -
10/06:00am 28.3 ENE 5 5 1009.1 - 0.0 - - - - - - -
10/05:30am 28.7 E 5 6 1008.6 - 0.0 - - - - - - -
10/05:00am 28.4 ESE 5 5 1008.2 - 0.0 - - - - - - -
10/04:30am 28.3 E 6 6 1007.7 - 0.0 - - - - - - -
10/04:00am 28.4 ENE 5 6 1007.2 - 0.0 - - - - - - -
10/03:30am 28.9 ESE 7 9 1007.0 - 0.0 - - - - - - -
10/03:00am 29.0 ESE 6 8 1007.0 - 0.0 - - - - - - -
10/02:30am 28.7 E 6 7 1007.1 - 0.0 - - - - - - -
10/02:00am 29.0 ENE 6 6 1007.4 - 0.0 - - - - - - -
10/01:30am 29.2 ESE 6 7 1007.6 - 0.0 - - - - - - -
10/01:00am 29.4 E 5 6 1008.0 - 0.0 - - - - - - -
10/12:30am 30.4 E 5 6 1008.2 - 0.0 - - - - - - -
10/12:00am 30.2 E 6 7 1008.3 - 0.0 - - - - - - -
 
Date/Time
CST
Temp
°C
Wind Pressure Rain since
9am
mm
Weather Cloud Vis
km
Sea
Height
m
Swell
Dir  Spd
kts
Gust
kts
hPa Trend Height
m
Period
s
Dir
09/11:30pm 30.3 E 5 6 1008.3 - 0.0 - - - - - - -
09/11:00pm 30.5 ESE 3 4 1008.0 - 0.0 - - - - - - -
09/10:30pm 30.4 NE 3 5 1008.0 - 0.0 - - - - - - -
09/10:00pm 31.9 NW 4 5 1007.8 - 0.0 - - - - - - -
09/09:30pm 31.9 WSW 4 5 1007.8 - 0.0 - - - - - - -
09/09:00pm 32.8 NNW 4 7 1007.5 - 0.0 - - - - - - -
09/08:30pm 32.7 W 1 6 1007.2 - 0.0 - - - - - - -
09/08:00pm 33.1 N 4 6 1006.9 - 0.0 - - - - - - -
09/07:30pm 33.2 NNW 5 8 1006.7 - 0.0 - - - - - - -
09/07:00pm 33.5 NNW 8 11 1006.2 - 0.0 - - - - - - -
09/06:30pm 34.5 N 9 13 1005.7 - 0.0 - - - - - - -
09/06:00pm 35.5 N 8 11 1005.2 - 0.0 - - - - - - -
09/05:30pm 36.4 NW 6 8 1004.9 - 0.0 - - - - - - -
09/05:00pm 36.2 N 9 11 1005.1 - 0.0 - - - - - - -
09/04:30pm 35.8 N 9 13 1005.2 - 0.0 - - - - - - -
09/04:00pm 35.2 NNE 11 19 1005.4 - 0.0 - - - - - - -
09/03:30pm 38.0 NE 9 13 1005.4 - 0.0 - - - - - - -
09/03:00pm 38.4 ENE 7 11 1005.7 - 0.0 - - - - - - -
09/02:30pm 38.0 NE 6 10 1006.2 - 0.0 - - - - - - -
09/02:00pm 37.6 ENE 7 10 1006.5 - 0.0 - - - - - - -
09/01:30pm 37.1 ENE 6 11 1006.8 - 0.0 - - - - - - -
09/01:00pm 37.0 NE 8 11 1007.1 - 0.0 - - - - - - -
09/12:30pm 36.4 E 6 12 1007.5 - 0.0 - - - - - - -
09/12:00pm 35.9 ENE 6 11 1007.9 - 0.0 - - - - - - -
09/11:30am 35.3 ESE 4 10 1008.2 - 0.0 - - - - - - -
09/11:00am 34.7 ESE 4 7 1008.5 - 0.0 - - - - - - -
09/10:30am 33.8 E 5 7 1008.6 - 0.0 - - - - - - -
09/10:00am 33.0 E 5 6 1008.6 - 0.0 - - - - - - -
09/09:30am 32.5 SW 3 5 1008.8 - 0.0 - - - - - - -
09/09:00am 31.4 SW 3 5 1008.8 - 0.0 - - - - - - -
09/08:30am 31.1 WSW 3 4 1008.7 - 0.0 - - - - - - -
09/08:00am 30.4 CALM 0 0 1008.4 - 0.0 - - - - - - -
09/07:30am 29.3 N 3 4 1007.9 - 0.0 - - - - - - -
09/07:00am 28.1 N 4 5 1007.7 - 0.0 - - - - - - -
09/06:30am 27.5 CALM 0 0 1007.0 - 0.0 - - - - - - -
09/06:00am 27.5 CALM 0 0 1006.6 - 0.0 - - - - - - -
09/05:30am 27.7 CALM 0 3 1006.2 - 0.0 - - - - - - -
09/05:00am 27.7 SW 5 5 1006.0 - 0.0 - - - - - - -
09/04:30am 27.9 W 4 5 1005.8 - 0.0 - - - - - - -
09/04:00am 27.8 NNW 2 4 1005.7 - 0.0 - - - - - - -
09/03:30am 27.6 NE 5 6 1005.6 - 0.0 - - - - - - -
09/03:00am 28.0 E 5 6 1006.0 - 0.0 - - - - - - -
09/02:30am 28.4 ESE 6 8 1006.2 - 0.0 - - - - - - -
09/02:00am 28.6 ESE 7 9 1006.4 - 0.0 - - - - - - -
09/01:30am 28.7 ESE 8 9 1006.6 - 0.0 - - - - - - -
09/01:00am 28.5 E 5 7 1006.6 - 0.0 - - - - - - -
09/12:30am 28.9 ESE 6 7 1006.8 - 0.0 - - - - - - -
09/12:00am 29.1 ESE 7 9 1006.9 - 0.0 - - - - - - -
 
Date/Time
CST
Temp
°C
Wind Pressure Rain since
9am
mm
Weather Cloud Vis
km
Sea
Height
m
Swell
Dir  Spd
kts
Gust
kts
hPa Trend Height
m
Period
s
Dir
08/11:30pm 29.3 ESE 10 12 1007.0 - 0.0 - - - - - - -
08/11:00pm 29.7 ESE 8 10 1006.9 - 0.0 - - - - - - -
08/10:30pm 30.3 E 4 6 1006.8 - 0.0 - - - - - - -
08/10:00pm 30.5 SE 9 11 1006.5 - 0.0 - - - - - - -
08/09:30pm 31.3 E 6 9 1006.3 - 0.0 - - - - - - -
08/09:00pm 31.2 N 9 12 1005.9 - 0.0 - - - - - - -
08/08:30pm 31.3 NNE 11 16 1005.8 - 0.0 - - - - - - -
08/08:00pm 31.6 N 9 13 1005.6 - 0.0 - - - - - - -
08/07:30pm 31.9 NNE 5 7 1005.0 - 0.0 - - - - - - -
08/07:00pm 32.2 NE 12 17 1004.6 - 0.0 - - - - - - -
08/06:46pm 32.4 NE 9 23 1004.4 - 0.0 - - - - - - -
08/06:30pm 35.7 NW 6 9 1003.9 - 0.0 - - - - - - -
08/06:00pm 36.1 NW 7 8 1003.7 - 0.0 - - - - - - -
08/05:30pm 37.0 W 5 8 1003.8 - 0.0 - - - - - - -
08/05:00pm 37.1 W 4 7 1004.2 - 0.0 - - - - - - -
08/04:30pm 36.4 WSW 6 9 1004.4 - 0.0 - - - - - - -
08/04:00pm 36.3 WSW 5 7 1004.5 - 0.0 - - - - - - -
08/03:30pm 35.8 W 5 7 1005.0 - 0.0 - - - - - - -
08/03:00pm 36.0 W 5 8 1005.3 - 0.0 - - - - - - -

Other Formats:

Comma delimited format used in spreadsheet applications
http://www.bom.gov.au/fwo/IDD60701/IDD60701.95214.axf

JavaScript Object Notation format (JSON) in row-major order
http://www.bom.gov.au/fwo/IDD60701/IDD60701.95214.json